createdAt,value
2019-03-13T00:01:40.082Z,98920.98
2019-03-13T00:04:10.801Z,98930.17
2019-03-13T00:06:41.496Z,98956.70
2019-03-13T00:09:13.257Z,99002.92
2019-03-13T00:11:43.844Z,99037.83
2019-03-13T00:14:14.836Z,99056.16
2019-03-13T00:16:45.515Z,99057.39
2019-03-13T00:19:16.150Z,99071.30
2019-03-13T00:21:46.735Z,99064.70
2019-03-13T00:24:17.425Z,99100.66
2019-03-13T00:26:48.026Z,99083.84
2019-03-13T00:29:18.672Z,99086.25
2019-03-13T00:31:49.314Z,99092.45
2019-03-13T00:34:19.914Z,99095.19
2019-03-13T00:36:50.523Z,99107.08
2019-03-13T00:39:21.122Z,99116.91
2019-03-13T00:41:51.749Z,99119.89
2019-03-13T00:44:22.380Z,99119.39
2019-03-13T00:46:53.063Z,99122.50
2019-03-13T00:49:23.733Z,99131.70
2019-03-13T00:51:54.338Z,99130.05
2019-03-13T00:54:25.017Z,99142.91
2019-03-13T00:56:55.594Z,99143.12
2019-03-13T00:59:26.226Z,99141.90
2019-03-13T01:02:24.683Z,99144.52
2019-03-13T01:05:01.420Z,99154.97
2019-03-13T01:07:32.017Z,99151.09
2019-03-13T01:10:02.638Z,99159.52
2019-03-13T01:12:33.249Z,99167.44
2019-03-13T01:15:04.088Z,99161.50
2019-03-13T01:17:34.731Z,99166.14
2019-03-13T01:20:05.813Z,99170.53
2019-03-13T01:22:36.452Z,99172.67
2019-03-13T01:25:07.708Z,99179.46
2019-03-13T01:27:38.415Z,99177.27
2019-03-13T01:30:10.254Z,99181.66
2019-03-13T01:32:52.324Z,99191.02
2019-03-13T01:35:42.113Z,99197.86
2019-03-13T01:38:12.824Z,99191.40
2019-03-13T01:40:43.425Z,99201.02
2019-03-13T01:43:14.107Z,99206.37
2019-03-13T01:45:44.706Z,99206.20
2019-03-13T01:48:15.331Z,99215.52
2019-03-13T01:50:46.079Z,99224.20
2019-03-13T01:53:16.764Z,99219.09
2019-03-13T01:55:47.429Z,99213.53
2019-03-13T01:58:18.099Z,99229.30
2019-03-13T02:00:48.723Z,99232.84
2019-03-13T02:03:19.379Z,99233.17
2019-03-13T02:05:50.040Z,99232.42
2019-03-13T02:08:20.717Z,99243.50
2019-03-13T02:10:51.390Z,99243.50
2019-03-13T02:13:22.103Z,99251.25
2019-03-13T02:15:53.136Z,99250.34
2019-03-13T02:18:23.883Z,99243.41
2019-03-13T02:20:54.576Z,99241.63
2019-03-13T02:23:25.238Z,99242.97
2019-03-13T02:25:56.067Z,99241.33
2019-03-13T02:28:26.783Z,99246.77
2019-03-13T02:30:57.442Z,99242.13
2019-03-13T02:33:28.135Z,99237.34
2019-03-13T02:35:58.855Z,99236.78
2019-03-13T02:38:29.471Z,99247.67
2019-03-13T02:41:00.126Z,99254.95
2019-03-13T02:43:30.810Z,99240.80
2019-03-13T02:46:01.481Z,99247.42
2019-03-13T02:48:32.214Z,99240.45
2019-03-13T02:51:02.877Z,99228.28
2019-03-13T02:53:33.528Z,99233.72
2019-03-13T02:56:04.195Z,99228.06
2019-03-13T02:58:34.917Z,99229.72
2019-03-13T03:01:22.161Z,99226.28
2019-03-13T03:03:54.654Z,99247.64
2019-03-13T03:06:25.432Z,99233.81
2019-03-13T03:08:56.145Z,99238.59
2019-03-13T03:11:26.855Z,99231.04
2019-03-13T03:13:57.637Z,99233.95
2019-03-13T03:16:28.388Z,99230.75
2019-03-13T03:18:59.177Z,99226.62
2019-03-13T03:21:29.936Z,99222.57
2019-03-13T03:24:00.626Z,99224.94
2019-03-13T03:26:31.338Z,99216.25
2019-03-13T03:29:02.127Z,99219.16
2019-03-13T03:31:32.898Z,99216.20
2019-03-13T03:34:04.971Z,99226.88
2019-03-13T03:36:35.779Z,99212.16
2019-03-13T03:39:25.731Z,99226.51
2019-03-13T03:41:56.488Z,99211.91
2019-03-13T03:44:27.202Z,99225.58
2019-03-13T03:46:57.893Z,99218.45
2019-03-13T03:49:28.626Z,99224.95
2019-03-13T03:51:59.388Z,99228.88
2019-03-13T03:54:30.405Z,99227.39
2019-03-13T03:57:01.197Z,99217.52
2019-03-13T03:59:31.930Z,99215.74
2019-03-13T04:02:02.837Z,99217.00
2019-03-13T04:04:33.617Z,99221.39
2019-03-13T04:07:04.345Z,99224.56
2019-03-13T04:09:35.464Z,99218.09
2019-03-13T04:12:06.191Z,99214.17
2019-03-13T04:14:36.938Z,99223.87
2019-03-13T04:17:07.699Z,99218.72
2019-03-13T04:19:38.474Z,99215.00
2019-03-13T04:22:09.211Z,99210.06
2019-03-13T04:24:39.864Z,99212.68
2019-03-13T04:27:10.553Z,99210.33
2019-03-13T04:29:41.256Z,99205.50
2019-03-13T04:32:12.079Z,99214.11
2019-03-13T04:34:42.728Z,99209.84
2019-03-13T04:37:13.519Z,99203.64
2019-03-13T04:39:44.234Z,99210.31
2019-03-13T04:42:14.967Z,99198.41
2019-03-13T04:44:45.688Z,99197.94
2019-03-13T04:47:16.543Z,99201.78
2019-03-13T04:49:47.275Z,99194.89
2019-03-13T04:52:17.981Z,99198.78
2019-03-13T04:54:48.700Z,99199.11
2019-03-13T04:57:19.472Z,99198.27
2019-03-13T04:59:50.287Z,99200.13
2019-03-13T05:02:20.827Z,99196.61
2019-03-13T05:04:51.405Z,99189.95
2019-03-13T05:07:21.936Z,99183.19
2019-03-13T05:09:52.517Z,99194.29
2019-03-13T05:12:23.004Z,99186.44
2019-03-13T05:14:53.575Z,99177.69
2019-03-13T05:17:24.100Z,99180.38
2019-03-13T05:19:54.660Z,99182.28
2019-03-13T05:22:27.898Z,99168.59
2019-03-13T05:24:58.473Z,99180.23
2019-03-13T05:27:29.048Z,99172.71
2019-03-13T05:29:59.620Z,99177.54
2019-03-13T05:32:30.223Z,99171.33
2019-03-13T05:35:00.773Z,99175.22
2019-03-13T05:37:31.252Z,99163.89
2019-03-13T05:40:01.845Z,99165.91
2019-03-13T05:42:32.356Z,99165.20
2019-03-13T05:45:02.955Z,99169.69
2019-03-13T05:47:33.518Z,99161.16
2019-03-13T05:50:04.117Z,99165.70
2019-03-13T05:52:34.737Z,99165.97
2019-03-13T05:55:05.322Z,99165.61
2019-03-13T05:57:35.897Z,99163.76
2019-03-13T06:00:06.702Z,99155.13
2019-03-13T06:02:37.199Z,99161.14
2019-03-13T06:05:07.713Z,99161.48
2019-03-13T06:07:38.175Z,99146.94
2019-03-13T06:10:08.668Z,99144.02
2019-03-13T06:12:39.138Z,99145.80
2019-03-13T06:15:09.931Z,99153.25
2019-03-13T06:17:40.411Z,99147.78
2019-03-13T06:20:11.363Z,99151.03
2019-03-13T06:22:41.889Z,99151.29
2019-03-13T06:25:12.501Z,99163.08
2019-03-13T06:27:46.070Z,99150.45
2019-03-13T06:30:15.424Z,99132.70
2019-03-13T06:32:45.894Z,99137.48
2019-03-13T06:35:16.463Z,99136.38
2019-03-13T06:37:46.986Z,99147.75
2019-03-13T06:40:17.524Z,99144.17
2019-03-13T06:42:48.033Z,99129.89
2019-03-13T06:45:18.709Z,99135.66
2019-03-13T06:47:49.227Z,99137.11
2019-03-13T06:50:20.156Z,99129.44
2019-03-13T06:52:50.629Z,99146.20
2019-03-13T06:55:21.088Z,99134.07
2019-03-13T06:57:51.602Z,99128.11
2019-03-13T07:00:50.690Z,99139.12
2019-03-13T07:03:42.912Z,99147.39
2019-03-13T07:06:31.359Z,99145.14
2019-03-13T07:09:26.950Z,99134.47
2019-03-13T07:12:16.028Z,99138.06
2019-03-13T07:15:08.477Z,99151.30
2019-03-13T07:17:57.943Z,99140.88
2019-03-13T07:20:45.801Z,99133.35
2019-03-13T07:23:35.735Z,99135.86
2019-03-13T07:26:14.600Z,99139.37
2019-03-13T07:29:12.016Z,99136.92
2019-03-13T07:31:54.673Z,99139.91
2019-03-13T07:34:44.156Z,99128.33
2019-03-13T07:37:36.560Z,99141.55
2019-03-13T07:40:15.484Z,99132.49
2019-03-13T07:43:01.960Z,99137.96
2019-03-13T07:45:50.075Z,99138.99
2019-03-13T07:48:27.736Z,99134.47
2019-03-13T07:51:23.515Z,99139.27
2019-03-13T07:54:01.528Z,99134.02
2019-03-13T07:56:50.786Z,99140.07
2019-03-13T07:59:55.657Z,99127.66
2019-03-13T08:02:43.976Z,99120.69
2019-03-13T08:05:19.000Z,99123.59
2019-03-13T08:07:58.430Z,99128.88
2019-03-13T08:10:53.645Z,99127.52
2019-03-13T08:13:38.105Z,99132.54
2019-03-13T08:16:33.856Z,99117.87
2019-03-13T08:19:29.488Z,99111.10
2019-03-13T08:22:17.872Z,99113.72
2019-03-13T08:25:01.374Z,99126.70
2019-03-13T08:27:43.520Z,99112.41
2019-03-13T08:30:37.884Z,99106.84
2019-03-13T08:33:36.491Z,99110.44
2019-03-13T08:36:19.916Z,99112.17
2019-03-13T08:39:08.352Z,99096.34
2019-03-13T08:42:09.945Z,99098.59
2019-03-13T08:44:46.872Z,99101.73
2019-03-13T08:47:54.635Z,99098.38
2019-03-13T08:50:46.198Z,99111.58
2019-03-13T08:53:21.874Z,99093.63
2019-03-13T08:56:17.404Z,99096.49
2019-03-13T08:59:05.428Z,99092.05
2019-03-13T09:01:53.835Z,99100.48
2019-03-13T09:04:52.429Z,99098.70
2019-03-13T09:07:40.466Z,99090.08
2019-03-13T09:10:30.587Z,99094.06
2019-03-13T09:13:12.679Z,99080.52
2019-03-13T09:15:49.498Z,99092.28
2019-03-13T09:18:38.857Z,99085.01
2019-03-13T09:21:20.756Z,99078.73
2019-03-13T09:24:02.514Z,99080.46
2019-03-13T09:27:10.408Z,99081.73
2019-03-13T09:30:02.630Z,99071.71
2019-03-13T09:32:50.964Z,99076.20
2019-03-13T09:35:43.203Z,99060.78
2019-03-13T09:38:31.653Z,99055.94
2019-03-13T09:41:21.050Z,99058.23
2019-03-13T09:44:09.449Z,99046.89
2019-03-13T09:46:58.861Z,99047.08
2019-03-13T09:49:51.718Z,99055.89
2019-03-13T09:52:33.917Z,99041.67
2019-03-13T09:55:26.499Z,99037.47
2019-03-13T09:58:15.095Z,99034.00
2019-03-13T10:01:10.710Z,99039.70
2019-03-13T10:04:09.389Z,99049.30
2019-03-13T10:07:17.015Z,99039.49
2019-03-13T10:09:58.919Z,99033.08
2019-03-13T10:12:57.203Z,99034.24
2019-03-13T10:15:43.290Z,99036.91
2019-03-13T10:18:31.436Z,99047.04
2019-03-13T10:21:22.839Z,99041.79
2019-03-13T10:23:59.656Z,99030.99
2019-03-13T10:26:52.871Z,99031.50
2019-03-13T10:29:28.359Z,99045.44
2019-03-13T10:32:16.976Z,99034.64
2019-03-13T10:34:53.858Z,99032.31
2019-03-13T10:37:46.259Z,99038.94
2019-03-13T10:40:41.556Z,99028.47
2019-03-13T10:43:46.387Z,99034.83
2019-03-13T10:46:47.969Z,99027.52
2019-03-13T10:49:40.564Z,99033.10
2019-03-13T10:52:16.035Z,99022.65
2019-03-13T10:55:00.484Z,99032.45
2019-03-13T10:57:49.854Z,99036.50
2019-03-13T11:00:42.141Z,99033.57
2019-03-13T11:03:27.956Z,99027.16
2019-03-13T11:06:16.106Z,99026.14
2019-03-13T11:09:11.575Z,99022.48
2019-03-13T11:12:00.892Z,99031.99
2019-03-13T11:14:51.596Z,99030.27
2019-03-13T11:17:40.059Z,99029.89
2019-03-13T11:20:24.294Z,99021.08
2019-03-13T11:23:05.331Z,99021.69
2019-03-13T11:25:51.355Z,99020.30
2019-03-13T11:28:56.297Z,99011.77
2019-03-13T11:31:44.837Z,99019.26
2019-03-13T11:34:26.687Z,99012.09
2019-03-13T11:37:19.324Z,99012.72
2019-03-13T11:40:07.549Z,99004.60
2019-03-13T11:42:53.826Z,98999.91
2019-03-13T11:45:32.517Z,99007.27
2019-03-13T11:48:20.873Z,98997.02
2019-03-13T11:51:05.291Z,98993.13
2019-03-13T11:53:58.043Z,98990.14
2019-03-13T11:56:47.299Z,98990.59
2019-03-13T11:59:45.755Z,98985.83
2019-03-13T12:02:37.957Z,98983.02
2019-03-13T12:05:19.799Z,98983.16
2019-03-13T12:08:15.071Z,98974.64
2019-03-13T12:11:01.470Z,98969.03
2019-03-13T12:13:45.494Z,98964.67
2019-03-13T12:16:29.045Z,98956.73
2019-03-13T12:19:12.544Z,98952.84
2019-03-13T12:21:52.952Z,98956.02
2019-03-13T12:24:51.238Z,98948.33
2019-03-13T12:27:36.301Z,98940.83
2019-03-13T12:30:33.748Z,98930.29
2019-03-13T12:33:21.705Z,98930.23
2019-03-13T12:36:11.159Z,98929.58
2019-03-13T12:39:06.499Z,98931.55
2019-03-13T12:41:49.144Z,98917.46
2019-03-13T12:44:37.176Z,98919.48
2019-03-13T12:47:21.022Z,98912.92
2019-03-13T12:50:07.159Z,98916.26
2019-03-13T12:52:56.545Z,98909.78
2019-03-13T12:55:54.937Z,98911.46
2019-03-13T12:58:43.105Z,98920.66
2019-03-13T13:01:35.506Z,98911.67
2019-03-13T13:04:13.565Z,98912.98
2019-03-13T13:06:51.203Z,98921.19
2019-03-13T13:09:50.575Z,98916.13
2019-03-13T13:12:42.752Z,98919.41
2019-03-13T13:15:50.542Z,98901.58
2019-03-13T13:18:34.774Z,98904.75
2019-03-13T13:21:05.283Z,98912.30
2019-03-13T13:23:35.773Z,98920.20
2019-03-13T13:26:06.603Z,98902.28
2019-03-13T13:28:37.088Z,98898.17
2019-03-13T13:31:07.632Z,98894.86
2019-03-13T13:33:38.121Z,98891.70
2019-03-13T13:36:09.216Z,98880.36
2019-03-13T13:38:39.734Z,98884.27
2019-03-13T13:41:10.245Z,98873.80
2019-03-13T13:43:40.692Z,98885.00
2019-03-13T13:46:32.261Z,98883.36
2019-03-13T13:49:02.752Z,98877.08
2019-03-13T13:51:33.274Z,98880.84
2019-03-13T13:54:03.865Z,98882.00
2019-03-13T13:56:34.396Z,98871.13
2019-03-13T13:59:04.943Z,98875.44
2019-03-13T14:01:35.442Z,98867.72
2019-03-13T14:04:05.961Z,98874.73
2019-03-13T14:06:36.446Z,98850.13
2019-03-13T14:09:07.807Z,98874.14
2019-03-13T14:11:38.285Z,98875.45
2019-03-13T14:14:08.775Z,98873.30
2019-03-13T14:16:39.301Z,98890.78
2019-03-13T14:19:09.766Z,98880.71
2019-03-13T14:21:40.244Z,98877.23
2019-03-13T14:24:10.633Z,98871.11
2019-03-13T14:26:41.116Z,98887.48
2019-03-13T14:29:11.570Z,98869.91
2019-03-13T14:31:42.123Z,98870.82
2019-03-13T14:34:12.600Z,98874.55
2019-03-13T14:36:43.122Z,98864.53
2019-03-13T14:39:13.741Z,98863.47
2019-03-13T14:41:44.208Z,98862.78
2019-03-13T14:44:14.686Z,98863.08
2019-03-13T14:46:45.214Z,98867.31
2019-03-13T14:49:15.755Z,98832.53
2019-03-13T14:51:46.314Z,98848.33
2019-03-13T14:54:16.846Z,98862.09
2019-03-13T14:56:47.381Z,98867.46
2019-03-13T14:59:17.914Z,98863.61
2019-03-13T15:01:48.535Z,98862.34
2019-03-13T15:04:19.055Z,98871.25
2019-03-13T15:06:49.541Z,98881.48
2019-03-13T15:09:20.093Z,98887.16
2019-03-13T15:11:50.600Z,98881.37
2019-03-13T15:14:21.114Z,98897.44
2019-03-13T15:16:53.292Z,98891.64
2019-03-13T15:19:23.956Z,98888.98
2019-03-13T15:21:54.438Z,98901.55
2019-03-13T15:24:24.916Z,98897.06
2019-03-13T15:26:55.340Z,98903.19
2019-03-13T15:29:25.827Z,98910.71
2019-03-13T15:31:56.394Z,98897.80
2019-03-13T15:34:26.961Z,98882.13
2019-03-13T15:36:57.524Z,98873.02
2019-03-13T15:39:28.098Z,98874.97
2019-03-13T15:41:58.695Z,98875.73
2019-03-13T15:44:29.226Z,98864.64
2019-03-13T15:46:59.737Z,98848.88
2019-03-13T15:49:30.233Z,98843.03
2019-03-13T15:52:00.779Z,98847.84
2019-03-13T15:54:31.895Z,98839.66
2019-03-13T15:57:02.413Z,98847.91
2019-03-13T15:59:32.916Z,98850.59
2019-03-13T16:02:03.482Z,98845.70
2019-03-13T16:04:33.995Z,98852.91
2019-03-13T16:07:04.513Z,98837.94
2019-03-13T16:09:35.075Z,98844.72
2019-03-13T16:12:05.593Z,98841.55
2019-03-13T16:14:36.144Z,98839.30
2019-03-13T16:17:06.734Z,98843.04
2019-03-13T16:19:37.233Z,98845.47
2019-03-13T16:22:08.874Z,98838.59
2019-03-13T16:24:39.468Z,98851.22
2019-03-13T16:27:10.023Z,98841.36
2019-03-13T16:29:40.542Z,98834.05
2019-03-13T16:32:12.751Z,98826.63
2019-03-13T16:34:43.233Z,98837.24
2019-03-13T16:37:13.731Z,98838.45
2019-03-13T16:39:44.341Z,98838.08
2019-03-13T16:42:14.861Z,98830.55
2019-03-13T16:44:45.380Z,98829.05
2019-03-13T16:47:15.942Z,98829.84
2019-03-13T16:49:46.473Z,98831.43
2019-03-13T16:52:16.921Z,98833.45
2019-03-13T16:54:47.503Z,98832.88
2019-03-13T16:57:18.076Z,98831.53
2019-03-13T16:59:59.995Z,98829.99
2019-03-13T17:02:21.080Z,98830.46
2019-03-13T17:04:51.636Z,98826.00
2019-03-13T17:07:22.110Z,98821.47
2019-03-13T17:09:52.684Z,98830.09
2019-03-13T17:12:23.180Z,98827.60
2019-03-13T17:14:53.686Z,98833.91
2019-03-13T17:17:24.230Z,98823.16
2019-03-13T17:19:54.750Z,98832.28
2019-03-13T17:22:25.281Z,98834.24
2019-03-13T17:24:55.830Z,98837.98
2019-03-13T17:27:26.266Z,98828.03
2019-03-13T17:29:56.812Z,98819.14
2019-03-13T17:32:27.351Z,98827.41
2019-03-13T17:34:57.894Z,98836.81
2019-03-13T17:37:28.370Z,98842.19
2019-03-13T17:39:58.919Z,98833.48
2019-03-13T17:42:29.485Z,98828.86
2019-03-13T17:45:00.374Z,98819.33
2019-03-13T17:47:31.204Z,98825.06
2019-03-13T17:50:01.714Z,98818.06
2019-03-13T17:52:32.148Z,98815.54
2019-03-13T17:55:02.704Z,98820.30
2019-03-13T17:57:34.199Z,98816.05
2019-03-13T18:00:05.614Z,98818.56
2019-03-13T18:02:36.177Z,98813.28
2019-03-13T18:05:07.555Z,98807.16
2019-03-13T18:07:38.141Z,98806.19
2019-03-13T18:10:11.691Z,98805.26
2019-03-13T18:12:42.222Z,98808.05
2019-03-13T18:15:12.938Z,98810.92
2019-03-13T18:17:43.616Z,98811.30
2019-03-13T18:20:16.308Z,98803.75
2019-03-13T18:22:46.941Z,98810.16
2019-03-13T18:25:18.356Z,98814.52
2019-03-13T18:27:49.902Z,98805.44
2019-03-13T18:30:22.953Z,98811.52
2019-03-13T18:32:53.572Z,98806.05
2019-03-13T18:35:24.112Z,98806.56
2019-03-13T18:37:54.712Z,98817.93
2019-03-13T18:40:25.971Z,98822.94
2019-03-13T18:42:56.543Z,98819.14
2019-03-13T18:45:27.611Z,98829.71
2019-03-13T18:47:58.276Z,98826.53
2019-03-13T18:50:35.624Z,98840.41
2019-03-13T18:53:07.319Z,98832.51
2019-03-13T18:55:38.027Z,98831.58
2019-03-13T18:58:08.606Z,98824.89
2019-03-13T19:00:39.408Z,98831.16
2019-03-13T19:03:10.639Z,98833.64
2019-03-13T19:05:41.265Z,98834.29
2019-03-13T19:08:11.859Z,98834.58
2019-03-13T19:10:42.770Z,98837.23
2019-03-13T19:13:13.345Z,98838.92
2019-03-13T19:15:43.991Z,98845.89
2019-03-13T19:18:14.629Z,98827.84
2019-03-13T19:20:45.196Z,98823.91
2019-03-13T19:23:16.122Z,98827.23
2019-03-13T19:25:46.814Z,98848.60
2019-03-13T19:28:17.502Z,98853.32
2019-03-13T19:30:48.129Z,98851.88
2019-03-13T19:33:20.157Z,98844.20
2019-03-13T19:35:52.444Z,98856.83
2019-03-13T19:38:25.652Z,98858.61
2019-03-13T19:40:58.459Z,98866.00
2019-03-13T19:43:29.188Z,98862.11
2019-03-13T19:45:59.814Z,98855.56
2019-03-13T19:48:30.443Z,98866.37
2019-03-13T19:51:01.243Z,98859.35
2019-03-13T19:53:33.090Z,98872.50
2019-03-13T19:56:03.742Z,98878.58
2019-03-13T19:58:34.734Z,98871.01
2019-03-13T20:01:06.014Z,98868.05
2019-03-13T20:03:36.843Z,98867.08
2019-03-13T20:06:12.029Z,98871.70
2019-03-13T20:08:44.544Z,98863.84
2019-03-13T20:11:15.199Z,98879.79
2019-03-13T20:13:45.921Z,98883.53
2019-03-13T20:16:16.751Z,98881.28
2019-03-13T20:18:49.848Z,98892.61
2019-03-13T20:21:20.697Z,98885.69
2019-03-13T20:23:51.366Z,98899.34
2019-03-13T20:26:22.057Z,98905.94
2019-03-13T20:28:52.728Z,98914.82
2019-03-13T20:31:23.394Z,98913.52
2019-03-13T20:33:54.034Z,98914.82
2019-03-13T20:36:24.750Z,98924.98
2019-03-13T20:38:55.482Z,98929.61
2019-03-13T20:41:26.114Z,98924.66
2019-03-13T20:43:56.682Z,98943.00
2019-03-13T20:46:27.186Z,98943.05
2019-03-13T20:48:57.837Z,98941.88
2019-03-13T20:51:28.435Z,98954.80
2019-03-13T20:53:58.925Z,98958.73
2019-03-13T20:56:29.499Z,98974.84
2019-03-13T20:59:00.309Z,98962.05
2019-03-13T21:01:30.980Z,98964.67
2019-03-13T21:04:01.632Z,98987.23
2019-03-13T21:06:32.180Z,98995.14
2019-03-13T21:09:02.817Z,98996.27
2019-03-13T21:11:33.380Z,99002.31
2019-03-13T21:14:03.831Z,99008.54
2019-03-13T21:16:34.450Z,99012.52
2019-03-13T21:19:05.153Z,99002.72
2019-03-13T21:21:35.741Z,99022.16
2019-03-13T21:24:06.250Z,99042.33
2019-03-13T21:26:36.844Z,99028.20
2019-03-13T21:29:07.396Z,99038.63
2019-03-13T21:31:38.166Z,99051.41
2019-03-13T21:34:09.720Z,99047.28
2019-03-13T21:36:40.429Z,99059.91
2019-03-13T21:39:12.016Z,99055.00
2019-03-13T21:41:42.667Z,99056.17
2019-03-13T21:44:13.179Z,99071.20
2019-03-13T21:46:43.698Z,99077.92
2019-03-13T21:49:14.268Z,99090.33
2019-03-13T21:51:44.819Z,99098.45
2019-03-13T21:54:15.375Z,99102.68
2019-03-13T21:56:45.955Z,99102.37
2019-03-13T21:59:16.591Z,99120.70
2019-03-13T22:01:47.093Z,99107.09
2019-03-13T22:04:24.094Z,99116.39
2019-03-13T22:06:49.888Z,99133.04
2019-03-13T22:09:20.414Z,99149.41
2019-03-13T22:11:51.041Z,99176.11
2019-03-13T22:14:21.534Z,99159.47
2019-03-13T22:16:52.033Z,99176.56
2019-03-13T22:19:22.671Z,99169.74
2019-03-13T22:21:53.224Z,99181.95
2019-03-13T22:24:23.816Z,99198.81
2019-03-13T22:26:54.414Z,99222.38
2019-03-13T22:29:25.084Z,99217.64
2019-03-13T22:31:55.777Z,99224.39
2019-03-13T22:34:26.384Z,99223.63
2019-03-13T22:36:56.971Z,99243.05
2019-03-13T22:39:27.515Z,99242.72
2019-03-13T22:41:58.191Z,99225.42
2019-03-13T22:44:28.788Z,99241.41
2019-03-13T22:46:59.497Z,99254.23
2019-03-13T22:49:30.159Z,99242.45
2019-03-13T22:52:01.173Z,99260.38
2019-03-13T22:54:32.478Z,99268.03
2019-03-13T22:57:03.649Z,99284.48
2019-03-13T22:59:35.320Z,99269.47
2019-03-13T23:02:09.635Z,99272.02
2019-03-13T23:04:40.431Z,99275.88
2019-03-13T23:07:11.616Z,99276.16
2019-03-13T23:09:42.297Z,99282.23
2019-03-13T23:12:13.098Z,99285.19
2019-03-13T23:14:43.631Z,99298.28
2019-03-13T23:17:14.654Z,99309.17
2019-03-13T23:19:45.436Z,99306.55
2019-03-13T23:22:15.983Z,99296.97
2019-03-13T23:24:46.744Z,99300.61
2019-03-13T23:27:17.612Z,99308.47
2019-03-13T23:29:48.861Z,99320.33
2019-03-13T23:32:19.459Z,99313.10
2019-03-13T23:34:50.343Z,99319.52
2019-03-13T23:37:21.085Z,99324.55
2019-03-13T23:39:52.060Z,99325.86
2019-03-13T23:42:22.708Z,99345.98
2019-03-13T23:44:54.875Z,99341.16
2019-03-13T23:47:25.849Z,99356.92
2019-03-13T23:49:56.483Z,99346.40
2019-03-13T23:52:27.126Z,99361.41
2019-03-13T23:54:58.023Z,99361.66
2019-03-13T23:57:28.896Z,99361.33
